sensor_id;sensor_type;location;lat;lon;timestamp;pressure;altitude;pressure_sealevel;temperature;humidity
72086;BME280;64750;52.134;5.424;2023-03-22T00:01:44;101121.69;;;10.03;79.98
72086;BME280;64750;52.134;5.424;2023-03-22T00:04:11;101118.13;;;10.04;79.81
72086;BME280;64750;52.134;5.424;2023-03-22T00:06:38;101113.72;;;10.05;79.62
72086;BME280;64750;52.134;5.424;2023-03-22T00:09:04;101115.41;;;10.06;79.82
72086;BME280;64750;52.134;5.424;2023-03-22T00:11:31;101108.56;;;10.03;79.82
72086;BME280;64750;52.134;5.424;2023-03-22T00:13:57;101109.38;;;10.04;79.83
72086;BME280;64750;52.134;5.424;2023-03-22T00:16:24;101112.78;;;10.06;79.63
72086;BME280;64750;52.134;5.424;2023-03-22T00:18:50;101101.50;;;10.04;79.52
72086;BME280;64750;52.134;5.424;2023-03-22T00:21:17;101099.91;;;10.01;79.63
72086;BME280;64750;52.134;5.424;2023-03-22T00:23:44;101093.72;;;10.02;79.75
72086;BME280;64750;52.134;5.424;2023-03-22T00:26:12;101089.34;;;10.02;79.78
72086;BME280;64750;52.134;5.424;2023-03-22T00:28:40;101089.47;;;9.99;79.87
72086;BME280;64750;52.134;5.424;2023-03-22T00:31:07;101081.69;;;9.98;79.63
72086;BME280;64750;52.134;5.424;2023-03-22T00:33:34;101081.00;;;9.94;79.82
72086;BME280;64750;52.134;5.424;2023-03-22T00:36:09;101078.28;;;9.96;79.89
72086;BME280;64750;52.134;5.424;2023-03-22T00:38:36;101089.66;;;9.96;80.02
72086;BME280;64750;52.134;5.424;2023-03-22T00:43:39;101082.03;;;9.92;80.04
72086;BME280;64750;52.134;5.424;2023-03-22T00:46:06;101082.03;;;9.92;79.91
72086;BME280;64750;52.134;5.424;2023-03-22T00:48:33;101076.94;;;9.89;79.90
72086;BME280;64750;52.134;5.424;2023-03-22T00:51:00;101071.69;;;9.89;79.69
72086;BME280;64750;52.134;5.424;2023-03-22T00:53:27;101067.28;;;9.89;79.93
72086;BME280;64750;52.134;5.424;2023-03-22T00:55:58;101064.66;;;9.89;79.76
72086;BME280;64750;52.134;5.424;2023-03-22T00:58:25;101063.03;;;9.87;79.80
72086;BME280;64750;52.134;5.424;2023-03-22T01:00:51;101056.09;;;9.85;79.86
72086;BME280;64750;52.134;5.424;2023-03-22T01:03:18;101055.94;;;9.89;79.74
72086;BME280;64750;52.134;5.424;2023-03-22T01:05:47;101054.16;;;9.89;79.80
72086;BME280;64750;52.134;5.424;2023-03-22T01:08:14;101047.97;;;9.90;79.69
72086;BME280;64750;52.134;5.424;2023-03-22T01:10:42;101029.69;;;9.89;79.43
72086;BME280;64750;52.134;5.424;2023-03-22T01:13:10;101034.94;;;9.89;79.63
72086;BME280;64750;52.134;5.424;2023-03-22T01:15:36;101028.00;;;9.88;79.43
72086;BME280;64750;52.134;5.424;2023-03-22T01:18:03;101020.19;;;9.86;79.50
72086;BME280;64750;52.134;5.424;2023-03-22T01:20:30;101017.66;;;9.84;79.55
72086;BME280;64750;52.134;5.424;2023-03-22T01:22:57;101022.91;;;9.84;79.55
72086;BME280;64750;52.134;5.424;2023-03-22T01:25:24;101012.41;;;9.84;79.38
72086;BME280;64750;52.134;5.424;2023-03-22T01:27:51;101011.63;;;9.82;79.49
72086;BME280;64750;52.134;5.424;2023-03-22T01:30:17;101005.47;;;9.83;79.65
72086;BME280;64750;52.134;5.424;2023-03-22T01:32:44;101003.75;;;9.82;79.62
72086;BME280;64750;52.134;5.424;2023-03-22T01:35:10;101000.22;;;9.83;79.54
72086;BME280;64750;52.134;5.424;2023-03-22T01:37:37;100994.97;;;9.83;79.57
72086;BME280;64750;52.134;5.424;2023-03-22T01:40:04;100989.81;;;9.82;79.33
72086;BME280;64750;52.134;5.424;2023-03-22T01:42:30;100980.97;;;9.83;79.33
72086;BME280;64750;52.134;5.424;2023-03-22T01:47:52;100972.44;;;9.79;79.41
72086;BME280;64750;52.134;5.424;2023-03-22T01:50:21;100970.56;;;9.81;79.44
72086;BME280;64750;52.134;5.424;2023-03-22T01:52:49;100970.66;;;9.80;79.36
72086;BME280;64750;52.134;5.424;2023-03-22T01:55:17;100964.63;;;9.78;79.35
72086;BME280;64750;52.134;5.424;2023-03-22T01:57:48;100952.38;;;9.78;79.52
72086;BME280;64750;52.134;5.424;2023-03-22T02:00:16;100956.75;;;9.78;79.52
72086;BME280;64750;52.134;5.424;2023-03-22T02:02:47;100940.06;;;9.79;79.51
72086;BME280;64750;52.134;5.424;2023-03-22T02:05:15;100940.94;;;9.79;79.73
72086;BME280;64750;52.134;5.424;2023-03-22T02:07:42;100928.66;;;9.80;79.61
72086;BME280;64750;52.134;5.424;2023-03-22T02:10:21;100927.81;;;9.79;79.49
72086;BME280;64750;52.134;5.424;2023-03-22T02:18:42;100919.25;;;9.76;79.92
72086;BME280;64750;52.134;5.424;2023-03-22T02:21:40;100916.72;;;9.74;79.96
72086;BME280;64750;52.134;5.424;2023-03-22T02:30:29;100910.53;;;9.75;79.95
72086;BME280;64750;52.134;5.424;2023-03-22T02:35:32;100895.72;;;9.74;80.11
72086;BME280;64750;52.134;5.424;2023-03-22T02:38:23;100889.72;;;9.72;80.27
72086;BME280;64750;52.134;5.424;2023-03-22T02:41:16;100890.63;;;9.71;80.46
72086;BME280;64750;52.134;5.424;2023-03-22T02:44:07;100883.78;;;9.68;80.77
72086;BME280;64750;52.134;5.424;2023-03-22T02:49:45;100873.28;;;9.68;81.24
72086;BME280;64750;52.134;5.424;2023-03-22T02:54:52;100867.09;;;9.69;81.32
72086;BME280;64750;52.134;5.424;2023-03-22T02:57:29;100866.28;;;9.69;81.63
72086;BME280;64750;52.134;5.424;2023-03-22T02:59:59;100861.03;;;9.69;81.94
72086;BME280;64750;52.134;5.424;2023-03-22T03:02:29;100855.78;;;9.69;81.98
72086;BME280;64750;52.134;5.424;2023-03-22T03:04:56;100866.28;;;9.69;82.44
72086;BME280;64750;52.134;5.424;2023-03-22T03:07:26;100854.81;;;9.70;82.53
72086;BME280;64750;52.134;5.424;2023-03-22T03:09:54;100854.81;;;9.70;82.65
72086;BME280;64750;52.134;5.424;2023-03-22T03:12:25;100852.19;;;9.70;82.95
72086;BME280;64750;52.134;5.424;2023-03-22T03:14:52;100853.06;;;9.71;83.05
72086;BME280;64750;52.134;5.424;2023-03-22T03:18:12;100849.56;;;9.70;83.06
72086;BME280;64750;52.134;5.424;2023-03-22T03:23:48;100851.34;;;9.69;83.75
72086;BME280;64750;52.134;5.424;2023-03-22T03:31:42;100858.47;;;9.67;84.28
72086;BME280;64750;52.134;5.424;2023-03-22T03:34:20;100846.19;;;9.68;84.49
72086;BME280;64750;52.134;5.424;2023-03-22T03:36:55;100853.22;;;9.67;84.49
72086;BME280;64750;52.134;5.424;2023-03-22T03:39:25;100854.06;;;9.68;84.55
72086;BME280;64750;52.134;5.424;2023-03-22T03:41:54;100855.78;;;9.69;84.86
72086;BME280;64750;52.134;5.424;2023-03-22T03:44:22;100854.06;;;9.68;84.83
72086;BME280;64750;52.134;5.424;2023-03-22T03:46:50;100848.72;;;9.69;85.02
72086;BME280;64750;52.134;5.424;2023-03-22T03:49:19;100841.53;;;9.73;84.84
72086;BME280;64750;52.134;5.424;2023-03-22T03:51:54;100850.34;;;9.72;85.03
72086;BME280;64750;52.134;5.424;2023-03-22T03:54:22;100852.03;;;9.73;85.10
72086;BME280;64750;52.134;5.424;2023-03-22T03:56:48;100843.41;;;9.71;85.19
72086;BME280;64750;52.134;5.424;2023-03-22T03:59:17;100843.41;;;9.71;85.42
72086;BME280;64750;52.134;5.424;2023-03-22T04:01:44;100838.91;;;9.73;85.40
72086;BME280;64750;52.134;5.424;2023-03-22T04:04:20;100842.38;;;9.74;85.43
72086;BME280;64750;52.134;5.424;2023-03-22T04:06:58;100847.72;;;9.72;85.37
72086;BME280;64750;52.134;5.424;2023-03-22T04:09:27;100851.19;;;9.73;85.37
72086;BME280;64750;52.134;5.424;2023-03-22T04:11:55;100847.72;;;9.72;85.52
72086;BME280;64750;52.134;5.424;2023-03-22T04:14:23;100845.09;;;9.72;85.47
72086;BME280;64750;52.134;5.424;2023-03-22T04:16:51;100846.78;;;9.73;85.61
72086;BME280;64750;52.134;5.424;2023-03-22T04:19:18;100845.09;;;9.72;85.67
72086;BME280;64750;52.134;5.424;2023-03-22T04:21:45;100846.78;;;9.73;85.54
72086;BME280;64750;52.134;5.424;2023-03-22T04:24:12;100851.25;;;9.71;85.62
72086;BME280;64750;52.134;5.424;2023-03-22T04:26:39;100832.81;;;9.73;85.58
72086;BME280;64750;52.134;5.424;2023-03-22T04:29:06;100835.38;;;9.74;85.72
72086;BME280;64750;52.134;5.424;2023-03-22T04:31:33;100838.00;;;9.74;85.65
72086;BME280;64750;52.134;5.424;2023-03-22T04:34:01;100829.16;;;9.75;85.71
72086;BME280;64750;52.134;5.424;2023-03-22T04:36:32;100823.06;;;9.75;85.86
72086;BME280;64750;52.134;5.424;2023-03-22T04:39:02;100814.28;;;9.76;85.83
72086;BME280;64750;52.134;5.424;2023-03-22T04:41:32;100814.19;;;9.77;85.74
72086;BME280;64750;52.134;5.424;2023-03-22T04:43:58;100810.78;;;9.75;85.72
72086;BME280;64750;52.134;5.424;2023-03-22T04:46:29;100815.09;;;9.76;85.61
72086;BME280;64750;52.134;5.424;2023-03-22T04:48:56;100822.06;;;9.77;85.53
72086;BME280;64750;52.134;5.424;2023-03-22T04:51:23;100818.66;;;9.75;85.70
72086;BME280;64750;52.134;5.424;2023-03-22T04:53:50;100822.16;;;9.76;85.67
72086;BME280;64750;52.134;5.424;2023-03-22T04:56:17;100809.03;;;9.76;85.70
72086;BME280;64750;52.134;5.424;2023-03-22T04:58:44;100813.41;;;9.75;85.44
72086;BME280;64750;52.134;5.424;2023-03-22T05:01:13;100809.03;;;9.76;85.45
72086;BME280;64750;52.134;5.424;2023-03-22T05:03:40;100804.59;;;9.76;85.53
72086;BME280;64750;52.134;5.424;2023-03-22T05:06:08;100796.81;;;9.75;85.47
72086;BME280;64750;52.134;5.424;2023-03-22T05:08:35;100802.91;;;9.75;85.47
72086;BME280;64750;52.134;5.424;2023-03-22T05:11:11;100798.63;;;9.74;85.38
72086;BME280;64750;52.134;5.424;2023-03-22T05:13:38;100796.81;;;9.75;85.46
72086;BME280;64750;52.134;5.424;2023-03-22T05:16:06;100792.41;;;9.75;85.25
72086;BME280;64750;52.134;5.424;2023-03-22T05:18:32;100787.25;;;9.74;85.33
72086;BME280;64750;52.134;5.424;2023-03-22T05:20:59;100797.75;;;9.74;85.33
72086;BME280;64750;52.134;5.424;2023-03-22T05:23:29;100790.91;;;9.71;85.20
72086;BME280;64750;52.134;5.424;2023-03-22T05:25:55;100796.16;;;9.71;85.13
72086;BME280;64750;52.134;5.424;2023-03-22T05:28:23;100794.44;;;9.70;85.34
72086;BME280;64750;52.134;5.424;2023-03-22T05:30:52;100801.41;;;9.71;84.95
72086;BME280;64750;52.134;5.424;2023-03-22T05:33:22;100797.16;;;9.68;85.20
72086;BME280;64750;52.134;5.424;2023-03-22T05:35:48;100785.84;;;9.68;85.27
72086;BME280;64750;52.134;5.424;2023-03-22T05:38:16;100784.06;;;9.68;85.12
72086;BME280;64750;52.134;5.424;2023-03-22T05:40:43;100781.63;;;9.65;85.04
72086;BME280;64750;52.134;5.424;2023-03-22T05:43:10;100782.44;;;9.66;84.98
72086;BME280;64750;52.134;5.424;2023-03-22T05:45:37;100789.41;;;9.67;85.16
72086;BME280;64750;52.134;5.424;2023-03-22T05:48:04;100782.44;;;9.66;85.10
72086;BME280;64750;52.134;5.424;2023-03-22T05:50:31;100784.16;;;9.67;84.90
72086;BME280;64750;52.134;5.424;2023-03-22T05:52:58;100782.44;;;9.66;85.00
72086;BME280;64750;52.134;5.424;2023-03-22T05:55:25;100780.75;;;9.65;84.73
72086;BME280;64750;52.134;5.424;2023-03-22T05:57:51;100771.94;;;9.66;84.89
72086;BME280;64750;52.134;5.424;2023-03-22T06:00:20;100761.66;;;9.63;84.68
72086;BME280;64750;52.134;5.424;2023-03-22T06:02:47;100766.88;;;9.63;84.74
72086;BME280;64750;52.134;5.424;2023-03-22T06:05:15;100771.28;;;9.62;84.77
72086;BME280;64750;52.134;5.424;2023-03-22T06:07:42;100771.28;;;9.62;84.99
72086;BME280;64750;52.134;5.424;2023-03-22T06:10:11;100772.13;;;9.63;84.82
72086;BME280;64750;52.134;5.424;2023-03-22T06:12:38;100774.75;;;9.63;84.67
72086;BME280;64750;52.134;5.424;2023-03-22T06:15:06;100774.00;;;9.61;84.65
72086;BME280;64750;52.134;5.424;2023-03-22T06:17:33;100766.03;;;9.62;84.59
72086;BME280;64750;52.134;5.424;2023-03-22T06:19:59;100772.13;;;9.63;84.78
72086;BME280;64750;52.134;5.424;2023-03-22T06:22:26;100779.25;;;9.61;84.46
72086;BME280;64750;52.134;5.424;2023-03-22T06:24:55;100774.00;;;9.61;84.87
72086;BME280;64750;52.134;5.424;2023-03-22T06:27:22;100778.41;;;9.60;84.68
72086;BME280;64750;52.134;5.424;2023-03-22T06:29:48;100772.28;;;9.60;84.40
72086;BME280;64750;52.134;5.424;2023-03-22T06:32:16;100772.28;;;9.60;84.49
72086;BME280;64750;52.134;5.424;2023-03-22T06:34:43;100774.00;;;9.61;84.42
72086;BME280;64750;52.134;5.424;2023-03-22T06:37:09;100768.56;;;9.64;84.69
72086;BME280;64750;52.134;5.424;2023-03-22T06:39:36;100771.94;;;9.66;84.43
72086;BME280;64750;52.134;5.424;2023-03-22T06:42:02;100773.47;;;9.70;84.46
72086;BME280;64750;52.134;5.424;2023-03-22T06:44:28;100772.53;;;9.71;84.65
72086;BME280;64750;52.134;5.424;2023-03-22T06:46:55;100767.13;;;9.74;84.49
72086;BME280;64750;52.134;5.424;2023-03-22T06:49:21;100775.81;;;9.75;84.43
72086;BME280;64750;52.134;5.424;2023-03-22T06:51:48;100778.34;;;9.76;84.36
72086;BME280;64750;52.134;5.424;2023-03-22T06:54:14;100780.88;;;9.78;84.17
72086;BME280;64750;52.134;5.424;2023-03-22T06:56:42;100783.59;;;9.76;84.00
72086;BME280;64750;52.134;5.424;2023-03-22T06:59:08;100772.19;;;9.77;83.88
72086;BME280;64750;52.134;5.424;2023-03-22T07:01:34;100778.94;;;9.81;84.02
72086;BME280;64750;52.134;5.424;2023-03-22T07:04:01;100778.00;;;9.82;83.94
72086;BME280;64750;52.134;5.424;2023-03-22T07:06:28;100782.34;;;9.83;83.84
72086;BME280;64750;52.134;5.424;2023-03-22T07:08:55;100778.78;;;9.84;83.77
72086;BME280;64750;52.134;5.424;2023-03-22T07:11:22;100776.97;;;9.85;83.43
72086;BME280;64750;52.134;5.424;2023-03-22T07:13:54;100777.81;;;9.85;83.50
72086;BME280;64750;52.134;5.424;2023-03-22T07:16:21;100774.38;;;9.85;83.60
72086;BME280;64750;52.134;5.424;2023-03-22T07:18:47;100784.75;;;9.87;83.29
72086;BME280;64750;52.134;5.424;2023-03-22T07:21:14;100779.50;;;9.87;83.04
72086;BME280;64750;52.134;5.424;2023-03-22T07:23:40;100790.00;;;9.87;82.75
72086;BME280;64750;52.134;5.424;2023-03-22T07:26:07;100780.44;;;9.85;82.93
72086;BME280;64750;52.134;5.424;2023-03-22T07:28:33;100771.63;;;9.87;82.51
72086;BME280;64750;52.134;5.424;2023-03-22T07:31:08;100775.03;;;9.89;82.66
72086;BME280;64750;52.134;5.424;2023-03-22T07:33:37;100775.78;;;9.91;82.83
72086;BME280;64750;52.134;5.424;2023-03-22T07:36:05;100773.16;;;9.91;82.56
72086;BME280;64750;52.134;5.424;2023-03-22T07:38:33;100773.06;;;9.92;82.47
72086;BME280;64750;52.134;5.424;2023-03-22T07:40:59;100772.06;;;9.95;82.29
72086;BME280;64750;52.134;5.424;2023-03-22T07:43:26;100778.13;;;9.95;82.16
72086;BME280;64750;52.134;5.424;2023-03-22T07:45:52;100771.03;;;9.97;82.48
72086;BME280;64750;52.134;5.424;2023-03-22T07:48:20;100771.03;;;9.97;82.00
72086;BME280;64750;52.134;5.424;2023-03-22T07:50:48;100773.56;;;9.99;82.01
72086;BME280;64750;52.134;5.424;2023-03-22T07:53:14;100768.31;;;9.99;82.04
72086;BME280;64750;52.134;5.424;2023-03-22T07:55:41;100770.94;;;9.99;81.93
72086;BME280;64750;52.134;5.424;2023-03-22T07:58:07;100775.25;;;10.00;81.92
72086;BME280;64750;52.134;5.424;2023-03-22T08:00:34;100779.47;;;10.02;81.91
72086;BME280;64750;52.134;5.424;2023-03-22T08:03:01;100768.88;;;10.04;81.58
72086;BME280;64750;52.134;5.424;2023-03-22T08:05:27;100773.09;;;10.07;81.59
72086;BME280;64750;52.134;5.424;2023-03-22T08:07:54;100774.69;;;10.09;81.50
72086;BME280;64750;52.134;5.424;2023-03-22T08:10:22;100771.06;;;10.12;81.57
72086;BME280;64750;52.134;5.424;2023-03-22T08:12:48;100762.13;;;10.14;81.58
72086;BME280;64750;52.134;5.424;2023-03-22T08:15:15;100764.56;;;10.17;81.36
72086;BME280;64750;52.134;5.424;2023-03-22T08:17:41;100768.91;;;10.18;81.09
72086;BME280;64750;52.134;5.424;2023-03-22T08:20:08;100761.78;;;10.21;80.93
72086;BME280;64750;52.134;5.424;2023-03-22T08:22:35;100768.63;;;10.23;81.17
72086;BME280;64750;52.134;5.424;2023-03-22T08:25:02;100768.63;;;10.23;80.76
72086;BME280;64750;52.134;5.424;2023-03-22T08:27:30;100769.47;;;10.24;80.66
72086;BME280;64750;52.134;5.424;2023-03-22T08:29:56;100764.97;;;10.26;80.68
72086;BME280;64750;52.134;5.424;2023-03-22T08:32:23;100776.31;;;10.26;80.13
72086;BME280;64750;52.134;5.424;2023-03-22T08:34:50;100761.41;;;10.27;80.41
72086;BME280;64750;52.134;5.424;2023-03-22T08:37:18;100761.22;;;10.30;80.52
72086;BME280;64750;52.134;5.424;2023-03-22T08:39:47;100762.91;;;10.31;80.08
72086;BME280;64750;52.134;5.424;2023-03-22T08:42:14;100768.91;;;10.33;80.27
72086;BME280;64750;52.134;5.424;2023-03-22T08:44:40;100760.97;;;10.34;80.17
72086;BME280;64750;52.134;5.424;2023-03-22T08:47:07;100752.06;;;10.37;80.38
72086;BME280;64750;52.134;5.424;2023-03-22T08:49:33;100762.38;;;10.40;79.77
72086;BME280;64750;52.134;5.424;2023-03-22T08:52:00;100746.53;;;10.42;79.84
72086;BME280;64750;52.134;5.424;2023-03-22T08:54:27;100755.06;;;10.45;79.77
72086;BME280;64750;52.134;5.424;2023-03-22T08:56:58;100748.78;;;10.48;79.57
72086;BME280;64750;52.134;5.424;2023-03-22T08:59:25;100757.31;;;10.52;79.91
72086;BME280;64750;52.134;5.424;2023-03-22T09:01:52;100761.66;;;10.53;79.32
72086;BME280;64750;52.134;5.424;2023-03-22T09:04:18;100762.47;;;10.53;78.78
72086;BME280;64750;52.134;5.424;2023-03-22T09:06:45;100756.41;;;10.53;78.82
72086;BME280;64750;52.134;5.424;2023-03-22T09:09:12;100765.22;;;10.52;78.24
72086;BME280;64750;52.134;5.424;2023-03-22T09:11:39;100751.13;;;10.53;78.51
72086;BME280;64750;52.134;5.424;2023-03-22T09:14:08;100763.31;;;10.54;78.41
72086;BME280;64750;52.134;5.424;2023-03-22T09:16:34;100760.69;;;10.54;78.35
72086;BME280;64750;52.134;5.424;2023-03-22T09:19:01;100761.53;;;10.54;78.08
72086;BME280;64750;52.134;5.424;2023-03-22T09:21:28;100764.06;;;10.56;78.41
72086;BME280;64750;52.134;5.424;2023-03-22T09:23:57;100757.06;;;10.56;78.01
72086;BME280;64750;52.134;5.424;2023-03-22T09:26:23;100761.44;;;10.56;78.27
72086;BME280;64750;52.134;5.424;2023-03-22T09:28:50;100765.00;;;10.55;78.34
72086;BME280;64750;52.134;5.424;2023-03-22T09:31:17;100768.56;;;10.54;78.56
72086;BME280;64750;52.134;5.424;2023-03-22T09:33:46;100768.56;;;10.54;78.98
72086;BME280;64750;52.134;5.424;2023-03-22T09:36:13;100766.97;;;10.51;79.19
72086;BME280;64750;52.134;5.424;2023-03-22T09:38:39;100760.06;;;10.50;79.61
72086;BME280;64750;52.134;5.424;2023-03-22T09:44:07;100765.78;;;10.42;80.17
72086;BME280;64750;52.134;5.424;2023-03-22T09:46:38;100765.78;;;10.42;80.75
72086;BME280;64750;52.134;5.424;2023-03-22T09:49:16;100763.97;;;10.43;81.16
72086;BME280;64750;52.134;5.424;2023-03-22T09:51:51;100767.63;;;10.40;81.91
72086;BME280;64750;52.134;5.424;2023-03-22T09:54:29;100766.88;;;10.38;82.31
72086;BME280;64750;52.134;5.424;2023-03-22T09:57:21;100759.34;;;10.32;82.56
72086;BME280;64750;52.134;5.424;2023-03-22T10:05:26;100756.53;;;10.21;83.74
72086;BME280;64750;52.134;5.424;2023-03-22T10:08:16;100761.94;;;10.17;84.08
72086;BME280;64750;52.134;5.424;2023-03-22T10:10:46;100766.47;;;10.15;84.22
72086;BME280;64750;52.134;5.424;2023-03-22T10:13:22;100755.09;;;10.15;84.50
72086;BME280;64750;52.134;5.424;2023-03-22T10:15:52;100759.41;;;10.16;85.20
72086;BME280;64750;52.134;5.424;2023-03-22T10:18:23;100758.59;;;10.15;85.13
72086;BME280;64750;52.134;5.424;2023-03-22T10:20:59;100756.88;;;10.14;85.31
72086;BME280;64750;52.134;5.424;2023-03-22T10:23:31;100749.78;;;10.16;85.42
72086;BME280;64750;52.134;5.424;2023-03-22T10:26:01;100760.28;;;10.16;85.53
72086;BME280;64750;52.134;5.424;2023-03-22T10:28:42;100763.84;;;10.15;85.66
72086;BME280;64750;52.134;5.424;2023-03-22T10:31:15;100755.97;;;10.15;85.71
72086;BME280;64750;52.134;5.424;2023-03-22T10:36:20;100762.03;;;10.16;85.85
72086;BME280;64750;52.134;5.424;2023-03-22T10:38:52;100758.69;;;10.14;85.82
72086;BME280;64750;52.134;5.424;2023-03-22T10:41:20;100758.59;;;10.15;85.91
72086;BME280;64750;52.134;5.424;2023-03-22T10:43:54;100776.88;;;10.17;85.85
72086;BME280;64750;52.134;5.424;2023-03-22T10:46:24;100769.91;;;10.16;85.86
72086;BME280;64750;52.134;5.424;2023-03-22T10:48:56;100770.94;;;10.13;86.04
72086;BME280;64750;52.134;5.424;2023-03-22T10:51:41;100771.88;;;10.12;86.32
72086;BME280;64750;52.134;5.424;2023-03-22T10:54:13;100760.53;;;10.12;86.54
72086;BME280;64750;52.134;5.424;2023-03-22T10:56:40;100763.94;;;10.14;86.55
72086;BME280;64750;52.134;5.424;2023-03-22T10:59:45;100764.94;;;10.11;86.54
72086;BME280;64750;52.134;5.424;2023-03-22T11:02:22;100760.91;;;10.06;86.49
72086;BME280;64750;52.134;5.424;2023-03-22T11:04:51;100755.56;;;10.07;86.81
72086;BME280;64750;52.134;5.424;2023-03-22T11:07:42;100751.06;;;10.09;87.06
72086;BME280;64750;52.134;5.424;2023-03-22T11:13:22;100740.94;;;10.17;86.98
72086;BME280;64750;52.134;5.424;2023-03-22T11:15:31;100737.38;;;10.18;87.24
72086;BME280;64750;52.134;5.424;2023-03-22T11:18:07;100731.00;;;10.23;87.45
72086;BME280;64750;52.134;5.424;2023-03-22T11:20:39;100743.09;;;10.25;87.27
72086;BME280;64750;52.134;5.424;2023-03-22T11:23:10;100749.22;;;10.26;87.22
72086;BME280;64750;52.134;5.424;2023-03-22T11:25:44;100745.72;;;10.25;86.97
72086;BME280;64750;52.134;5.424;2023-03-22T11:28:27;100737.00;;;10.25;86.99
72086;BME280;64750;52.134;5.424;2023-03-22T11:31:13;100740.22;;;10.30;86.80
72086;BME280;64750;52.134;5.424;2023-03-22T11:36:20;100736.66;;;10.31;86.73
72086;BME280;64750;52.134;5.424;2023-03-22T11:38:46;100731.13;;;10.36;87.18
72086;BME280;64750;52.134;5.424;2023-03-22T11:41:26;100731.53;;;10.44;86.93
72086;BME280;64750;52.134;5.424;2023-03-22T11:44:02;100744.28;;;10.50;86.35
72086;BME280;64750;52.134;5.424;2023-03-22T11:46:31;100738.72;;;10.55;86.03
72086;BME280;64750;52.134;5.424;2023-03-22T11:49:02;100735.16;;;10.56;85.96
72086;BME280;64750;52.134;5.424;2023-03-22T11:51:33;100744.53;;;10.60;85.86
72086;BME280;64750;52.134;5.424;2023-03-22T11:54:06;100746.13;;;10.62;85.83
72086;BME280;64750;52.134;5.424;2023-03-22T11:56:40;100755.81;;;10.62;85.65
72086;BME280;64750;52.134;5.424;2023-03-22T11:59:13;100754.88;;;10.63;85.54
72086;BME280;64750;52.134;5.424;2023-03-22T12:04:16;100760.25;;;10.61;85.15
72086;BME280;64750;52.134;5.424;2023-03-22T12:06:45;100761.06;;;10.62;85.29
72086;BME280;64750;52.134;5.424;2023-03-22T12:12:04;100763.81;;;10.60;84.81
72086;BME280;64750;52.134;5.424;2023-03-22T12:14:51;100760.25;;;10.61;84.93
72086;BME280;64750;52.134;5.424;2023-03-22T12:17:46;100756.66;;;10.62;84.63
72086;BME280;64750;52.134;5.424;2023-03-22T12:22:48;100743.44;;;10.64;84.52
72086;BME280;64750;52.134;5.424;2023-03-22T12:25:20;100763.59;;;10.63;84.55
72086;BME280;64750;52.134;5.424;2023-03-22T12:28:30;100759.22;;;10.64;84.79
72086;BME280;64750;52.134;5.424;2023-03-22T12:30:58;100757.31;;;10.66;84.53
72086;BME280;64750;52.134;5.424;2023-03-22T12:33:38;100744.06;;;10.67;84.67
72086;BME280;64750;52.134;5.424;2023-03-22T12:36:13;100747.72;;;10.65;84.70
72086;BME280;64750;52.134;5.424;2023-03-22T12:38:54;100751.88;;;10.69;84.41
72086;BME280;64750;52.134;5.424;2023-03-22T12:41:31;100748.50;;;10.67;84.32
72086;BME280;64750;52.134;5.424;2023-03-22T12:46:53;100742.41;;;10.66;84.21
72086;BME280;64750;52.134;5.424;2023-03-22T12:49:50;100744.94;;;10.68;84.13
72086;BME280;64750;52.134;5.424;2023-03-22T12:54:49;100735.34;;;10.67;84.12
72086;BME280;64750;52.134;5.424;2023-03-22T12:57:18;100735.25;;;10.69;83.96
72086;BME280;64750;52.134;5.424;2023-03-22T12:59:48;100733.47;;;10.69;84.33
72086;BME280;64750;52.134;5.424;2023-03-22T13:02:31;100737.78;;;10.70;84.12
72086;BME280;64750;52.134;5.424;2023-03-22T13:05:01;100735.91;;;10.72;84.10
72086;BME280;64750;52.134;5.424;2023-03-22T13:07:35;100738.53;;;10.72;84.22
72086;BME280;64750;52.134;5.424;2023-03-22T13:13:30;100738.53;;;10.72;84.34
72086;BME280;64750;52.134;5.424;2023-03-22T13:16:14;100746.41;;;10.72;84.23
72086;BME280;64750;52.134;5.424;2023-03-22T13:21:13;100749.16;;;10.71;84.63
72086;BME280;64750;52.134;5.424;2023-03-22T13:26:41;100752.44;;;10.74;84.45
72086;BME280;64750;52.134;5.424;2023-03-22T13:29:19;100745.28;;;10.76;84.45
72086;BME280;64750;52.134;5.424;2023-03-22T13:31:57;100745.19;;;10.78;84.13
72086;BME280;64750;52.134;5.424;2023-03-22T13:34:46;100745.09;;;10.79;84.15
72086;BME280;64750;52.134;5.424;2023-03-22T13:37:30;100745.00;;;10.81;84.04
72086;BME280;64750;52.134;5.424;2023-03-22T13:40:01;100735.31;;;10.81;83.95
72086;BME280;64750;52.134;5.424;2023-03-22T13:42:38;100732.59;;;10.83;84.19
72086;BME280;64750;52.134;5.424;2023-03-22T13:45:08;100743.97;;;10.83;84.52
72086;BME280;64750;52.134;5.424;2023-03-22T13:48:29;100736.91;;;10.84;84.64
72086;BME280;64750;52.134;5.424;2023-03-22T13:51:11;100752.69;;;10.84;84.60
72086;BME280;64750;52.134;5.424;2023-03-22T13:56:57;100729.88;;;10.85;85.13
72086;BME280;64750;52.134;5.424;2023-03-22T14:01:55;100736.81;;;10.86;85.13
72086;BME280;64750;52.134;5.424;2023-03-22T14:04:28;100739.38;;;10.87;85.38
72086;BME280;64750;52.134;5.424;2023-03-22T14:06:59;100733.25;;;10.87;85.57
72086;BME280;64750;52.134;5.424;2023-03-22T14:09:42;100727.25;;;10.85;85.59
72086;BME280;64750;52.134;5.424;2023-03-22T14:12:18;100724.53;;;10.86;85.79
72086;BME280;64750;52.134;5.424;2023-03-22T14:14:51;100726.22;;;10.87;85.86
72086;BME280;64750;52.134;5.424;2023-03-22T14:17:33;100723.50;;;10.89;85.83
72086;BME280;64750;52.134;5.424;2023-03-22T14:20:02;100720.84;;;10.89;85.89
72086;BME280;64750;52.134;5.424;2023-03-22T14:22:36;100707.59;;;10.90;85.77
72086;BME280;64750;52.134;5.424;2023-03-22T14:25:04;100712.88;;;10.90;86.04
72086;BME280;64750;52.134;5.424;2023-03-22T14:27:32;100704.03;;;10.91;86.18
72086;BME280;64750;52.134;5.424;2023-03-22T14:29:58;100696.16;;;10.91;86.40
72086;BME280;64750;52.134;5.424;2023-03-22T14:32:26;100689.97;;;10.92;86.55